sensor_id;sensor_type;location;lat;lon;timestamp;temperature;humidity
18456;DHT22;9357;49.900;8.208;2023-02-04T00:01:16;8.70;99.90
18456;DHT22;9357;49.900;8.208;2023-02-04T00:02:49;8.70;99.90
18456;DHT22;9357;49.900;8.208;2023-02-04T00:04:22;8.80;99.90
18456;DHT22;9357;49.900;8.208;2023-02-04T00:05:54;8.70;99.90
18456;DHT22;9357;49.900;8.208;2023-02-04T00:07:27;8.70;99.90
18456;DHT22;9357;49.900;8.208;2023-02-04T00:09:00;8.70;99.90
18456;DHT22;9357;49.900;8.208;2023-02-04T00:10:33;8.70;99.90
18456;DHT22;9357;49.900;8.208;2023-02-04T00:12:06;8.70;99.90
18456;DHT22;9357;49.900;8.208;2023-02-04T00:13:41;8.70;99.90
18456;DHT22;9357;49.900;8.208;2023-02-04T00:15:13;8.70;99.90
18456;DHT22;9357;49.900;8.208;2023-02-04T00:16:47;8.70;99.90
18456;DHT22;9357;49.900;8.208;2023-02-04T00:18:20;8.70;99.90
18456;DHT22;9357;49.900;8.208;2023-02-04T00:19:53;8.70;99.90
18456;DHT22;9357;49.900;8.208;2023-02-04T00:21:26;8.70;99.90
18456;DHT22;9357;49.900;8.208;2023-02-04T00:22:57;8.70;99.90
18456;DHT22;9357;49.900;8.208;2023-02-04T00:24:30;8.70;99.90
18456;DHT22;9357;49.900;8.208;2023-02-04T00:26:02;8.70;99.90
18456;DHT22;9357;49.900;8.208;2023-02-04T00:27:35;8.70;99.90
18456;DHT22;9357;49.900;8.208;2023-02-04T00:29:08;8.70;99.90
18456;DHT22;9357;49.900;8.208;2023-02-04T00:30:41;8.70;99.90
18456;DHT22;9357;49.900;8.208;2023-02-04T00:32:15;8.70;99.90
18456;DHT22;9357;49.900;8.208;2023-02-04T00:33:48;8.80;99.90
18456;DHT22;9357;49.900;8.208;2023-02-04T00:35:21;8.70;99.90
18456;DHT22;9357;49.900;8.208;2023-02-04T00:36:54;8.70;99.90
18456;DHT22;9357;49.900;8.208;2023-02-04T00:38:26;8.70;99.90
18456;DHT22;9357;49.900;8.208;2023-02-04T00:39:59;8.70;99.90
18456;DHT22;9357;49.900;8.208;2023-02-04T00:41:32;8.70;99.90
18456;DHT22;9357;49.900;8.208;2023-02-04T00:43:05;8.70;99.90
18456;DHT22;9357;49.900;8.208;2023-02-04T00:44:37;8.70;99.90
18456;DHT22;9357;49.900;8.208;2023-02-04T00:46:10;8.70;99.90
18456;DHT22;9357;49.900;8.208;2023-02-04T00:47:45;8.70;99.90
18456;DHT22;9357;49.900;8.208;2023-02-04T00:49:17;8.60;99.90
18456;DHT22;9357;49.900;8.208;2023-02-04T00:50:50;8.60;99.90
18456;DHT22;9357;49.900;8.208;2023-02-04T00:52:24;8.60;99.90
18456;DHT22;9357;49.900;8.208;2023-02-04T00:53:56;8.60;99.90
18456;DHT22;9357;49.900;8.208;2023-02-04T00:55:29;8.60;99.90
18456;DHT22;9357;49.900;8.208;2023-02-04T00:57:01;8.60;99.90
18456;DHT22;9357;49.900;8.208;2023-02-04T00:58:34;8.60;99.90
18456;DHT22;9357;49.900;8.208;2023-02-04T01:00:08;8.60;99.90
18456;DHT22;9357;49.900;8.208;2023-02-04T01:01:42;8.60;99.90
18456;DHT22;9357;49.900;8.208;2023-02-04T01:03:16;8.60;99.90
18456;DHT22;9357;49.900;8.208;2023-02-04T01:04:48;8.60;99.90
18456;DHT22;9357;49.900;8.208;2023-02-04T01:06:20;8.60;99.90
18456;DHT22;9357;49.900;8.208;2023-02-04T01:07:53;8.60;99.90
18456;DHT22;9357;49.900;8.208;2023-02-04T01:09:26;8.60;99.90
18456;DHT22;9357;49.900;8.208;2023-02-04T01:10:59;8.60;99.90
18456;DHT22;9357;49.900;8.208;2023-02-04T01:12:32;8.60;99.90
18456;DHT22;9357;49.900;8.208;2023-02-04T01:14:04;8.50;99.90
18456;DHT22;9357;49.900;8.208;2023-02-04T01:15:37;8.50;99.90
18456;DHT22;9357;49.900;8.208;2023-02-04T01:17:10;8.50;99.90
18456;DHT22;9357;49.900;8.208;2023-02-04T01:18:44;8.50;99.90
18456;DHT22;9357;49.900;8.208;2023-02-04T01:20:17;8.50;99.90
18456;DHT22;9357;49.900;8.208;2023-02-04T01:21:50;8.50;99.90
18456;DHT22;9357;49.900;8.208;2023-02-04T01:23:22;8.50;99.90
18456;DHT22;9357;49.900;8.208;2023-02-04T01:24:54;8.50;99.90
18456;DHT22;9357;49.900;8.208;2023-02-04T01:26:27;8.50;99.90
18456;DHT22;9357;49.900;8.208;2023-02-04T01:28:00;8.50;99.90
18456;DHT22;9357;49.900;8.208;2023-02-04T01:29:32;8.50;99.90
18456;DHT22;9357;49.900;8.208;2023-02-04T01:31:04;8.50;99.90
18456;DHT22;9357;49.900;8.208;2023-02-04T01:32:37;8.40;99.90
18456;DHT22;9357;49.900;8.208;2023-02-04T01:34:11;8.40;99.90
18456;DHT22;9357;49.900;8.208;2023-02-04T01:35:44;8.40;99.90
18456;DHT22;9357;49.900;8.208;2023-02-04T01:37:17;8.40;99.90
18456;DHT22;9357;49.900;8.208;2023-02-04T01:38:49;8.40;99.90
18456;DHT22;9357;49.900;8.208;2023-02-04T01:40:21;8.40;99.90
18456;DHT22;9357;49.900;8.208;2023-02-04T01:41:54;8.40;99.90
18456;DHT22;9357;49.900;8.208;2023-02-04T01:43:28;8.40;99.90
18456;DHT22;9357;49.900;8.208;2023-02-04T01:45:01;8.40;99.90
18456;DHT22;9357;49.900;8.208;2023-02-04T01:46:33;8.40;99.90
18456;DHT22;9357;49.900;8.208;2023-02-04T01:48:07;8.40;99.90
18456;DHT22;9357;49.900;8.208;2023-02-04T01:49:43;8.40;99.90
18456;DHT22;9357;49.900;8.208;2023-02-04T01:51:17;8.40;99.90
18456;DHT22;9357;49.900;8.208;2023-02-04T01:52:52;8.40;99.90
18456;DHT22;9357;49.900;8.208;2023-02-04T01:54:25;8.40;99.90
18456;DHT22;9357;49.900;8.208;2023-02-04T01:55:59;8.40;99.90
18456;DHT22;9357;49.900;8.208;2023-02-04T01:57:32;8.40;99.90
18456;DHT22;9357;49.900;8.208;2023-02-04T01:59:10;8.40;99.90
18456;DHT22;9357;49.900;8.208;2023-02-04T02:00:44;8.40;99.90
18456;DHT22;9357;49.900;8.208;2023-02-04T02:02:39;8.40;99.90
18456;DHT22;9357;49.900;8.208;2023-02-04T02:04:14;8.40;99.90
18456;DHT22;9357;49.900;8.208;2023-02-04T02:05:51;8.40;99.90
18456;DHT22;9357;49.900;8.208;2023-02-04T02:07:25;8.40;99.90
18456;DHT22;9357;49.900;8.208;2023-02-04T02:08:57;8.40;99.90
18456;DHT22;9357;49.900;8.208;2023-02-04T02:10:30;8.40;99.90
18456;DHT22;9357;49.900;8.208;2023-02-04T02:12:04;8.40;99.90
18456;DHT22;9357;49.900;8.208;2023-02-04T02:13:36;8.40;99.90
18456;DHT22;9357;49.900;8.208;2023-02-04T02:15:10;8.40;99.90
18456;DHT22;9357;49.900;8.208;2023-02-04T02:16:41;8.40;99.90
18456;DHT22;9357;49.900;8.208;2023-02-04T02:18:15;8.30;99.90
18456;DHT22;9357;49.900;8.208;2023-02-04T02:19:47;8.30;99.90
18456;DHT22;9357;49.900;8.208;2023-02-04T02:21:30;8.30;99.90
18456;DHT22;9357;49.900;8.208;2023-02-04T02:23:10;8.40;99.90
18456;DHT22;9357;49.900;8.208;2023-02-04T02:24:46;8.30;99.90
18456;DHT22;9357;49.900;8.208;2023-02-04T02:26:19;8.30;99.90
18456;DHT22;9357;49.900;8.208;2023-02-04T02:27:53;8.30;99.90
18456;DHT22;9357;49.900;8.208;2023-02-04T02:29:27;8.30;99.90
18456;DHT22;9357;49.900;8.208;2023-02-04T02:30:59;8.30;99.90
18456;DHT22;9357;49.900;8.208;2023-02-04T02:32:33;8.30;99.90
18456;DHT22;9357;49.900;8.208;2023-02-04T02:34:05;8.30;99.90
18456;DHT22;9357;49.900;8.208;2023-02-04T02:35:37;8.30;99.90
18456;DHT22;9357;49.900;8.208;2023-02-04T02:37:10;8.30;99.90
18456;DHT22;9357;49.900;8.208;2023-02-04T02:38:43;8.30;99.90
18456;DHT22;9357;49.900;8.208;2023-02-04T02:40:18;8.30;99.90
18456;DHT22;9357;49.900;8.208;2023-02-04T02:41:50;8.30;99.90
18456;DHT22;9357;49.900;8.208;2023-02-04T02:43:24;8.30;99.90
18456;DHT22;9357;49.900;8.208;2023-02-04T02:44:58;8.30;99.90
18456;DHT22;9357;49.900;8.208;2023-02-04T02:46:31;8.30;99.90
18456;DHT22;9357;49.900;8.208;2023-02-04T02:48:04;8.30;99.90
18456;DHT22;9357;49.900;8.208;2023-02-04T02:49:36;8.30;99.90
18456;DHT22;9357;49.900;8.208;2023-02-04T02:51:11;8.30;99.90
18456;DHT22;9357;49.900;8.208;2023-02-04T02:52:44;8.30;99.90
18456;DHT22;9357;49.900;8.208;2023-02-04T02:54:20;8.30;99.90
18456;DHT22;9357;49.900;8.208;2023-02-04T02:55:55;8.30;99.90
18456;DHT22;9357;49.900;8.208;2023-02-04T02:57:28;8.30;99.90
18456;DHT22;9357;49.900;8.208;2023-02-04T02:59:12;8.30;99.90
18456;DHT22;9357;49.900;8.208;2023-02-04T03:00:45;8.30;99.90
18456;DHT22;9357;49.900;8.208;2023-02-04T03:02:20;8.30;99.90
18456;DHT22;9357;49.900;8.208;2023-02-04T03:03:53;8.30;99.90
18456;DHT22;9357;49.900;8.208;2023-02-04T03:05:27;8.30;99.90
18456;DHT22;9357;49.900;8.208;2023-02-04T03:07:02;8.30;99.90
18456;DHT22;9357;49.900;8.208;2023-02-04T03:08:35;8.30;99.90
18456;DHT22;9357;49.900;8.208;2023-02-04T03:10:08;8.30;99.90
18456;DHT22;9357;49.900;8.208;2023-02-04T03:11:42;8.30;99.90
18456;DHT22;9357;49.900;8.208;2023-02-04T03:13:16;8.30;99.90
18456;DHT22;9357;49.900;8.208;2023-02-04T03:14:49;8.30;99.90
18456;DHT22;9357;49.900;8.208;2023-02-04T03:16:22;8.30;99.90
18456;DHT22;9357;49.900;8.208;2023-02-04T03:17:55;8.30;99.90
18456;DHT22;9357;49.900;8.208;2023-02-04T03:19:28;8.30;99.90
18456;DHT22;9357;49.900;8.208;2023-02-04T03:21:01;8.30;99.90
18456;DHT22;9357;49.900;8.208;2023-02-04T03:22:36;8.30;99.90
18456;DHT22;9357;49.900;8.208;2023-02-04T03:24:09;8.30;99.90
18456;DHT22;9357;49.900;8.208;2023-02-04T03:25:42;8.20;99.90
18456;DHT22;9357;49.900;8.208;2023-02-04T03:27:17;8.30;99.90
18456;DHT22;9357;49.900;8.208;2023-02-04T03:28:49;8.20;99.90
18456;DHT22;9357;49.900;8.208;2023-02-04T03:30:22;8.20;99.90
18456;DHT22;9357;49.900;8.208;2023-02-04T03:31:54;8.20;99.90
18456;DHT22;9357;49.900;8.208;2023-02-04T03:33:27;8.20;99.90
18456;DHT22;9357;49.900;8.208;2023-02-04T03:35:02;8.20;99.90
18456;DHT22;9357;49.900;8.208;2023-02-04T03:36:35;8.20;99.90
18456;DHT22;9357;49.900;8.208;2023-02-04T03:38:07;8.20;99.90
18456;DHT22;9357;49.900;8.208;2023-02-04T03:39:39;8.20;99.90
18456;DHT22;9357;49.900;8.208;2023-02-04T03:41:12;8.20;99.90
18456;DHT22;9357;49.900;8.208;2023-02-04T03:42:46;8.20;99.90
18456;DHT22;9357;49.900;8.208;2023-02-04T03:44:19;8.20;99.90
18456;DHT22;9357;49.900;8.208;2023-02-04T03:45:52;8.20;99.90
18456;DHT22;9357;49.900;8.208;2023-02-04T03:47:25;8.20;99.90
18456;DHT22;9357;49.900;8.208;2023-02-04T03:48:57;8.10;99.90
18456;DHT22;9357;49.900;8.208;2023-02-04T03:50:30;8.20;99.90
18456;DHT22;9357;49.900;8.208;2023-02-04T03:52:03;8.10;99.90
18456;DHT22;9357;49.900;8.208;2023-02-04T03:53:36;8.10;99.90
18456;DHT22;9357;49.900;8.208;2023-02-04T03:55:09;8.10;99.90
18456;DHT22;9357;49.900;8.208;2023-02-04T03:56:42;8.00;99.90
18456;DHT22;9357;49.900;8.208;2023-02-04T03:58:16;8.10;99.90
18456;DHT22;9357;49.900;8.208;2023-02-04T03:59:48;8.00;99.90
18456;DHT22;9357;49.900;8.208;2023-02-04T04:01:21;8.10;99.90
18456;DHT22;9357;49.900;8.208;2023-02-04T04:02:54;8.00;99.90
18456;DHT22;9357;49.900;8.208;2023-02-04T04:04:28;8.00;99.90
18456;DHT22;9357;49.900;8.208;2023-02-04T04:06:00;8.00;99.90
18456;DHT22;9357;49.900;8.208;2023-02-04T04:07:32;8.00;99.90
18456;DHT22;9357;49.900;8.208;2023-02-04T04:09:05;7.90;99.90
18456;DHT22;9357;49.900;8.208;2023-02-04T04:10:38;7.90;99.90
18456;DHT22;9357;49.900;8.208;2023-02-04T04:12:12;7.90;99.90
18456;DHT22;9357;49.900;8.208;2023-02-04T04:13:46;7.90;99.90
18456;DHT22;9357;49.900;8.208;2023-02-04T04:15:19;7.90;99.90
18456;DHT22;9357;49.900;8.208;2023-02-04T04:16:51;7.90;99.90
18456;DHT22;9357;49.900;8.208;2023-02-04T04:18:23;7.80;99.90
18456;DHT22;9357;49.900;8.208;2023-02-04T04:19:56;7.80;99.90
18456;DHT22;9357;49.900;8.208;2023-02-04T04:21:29;7.80;99.90
18456;DHT22;9357;49.900;8.208;2023-02-04T04:23:01;7.80;99.90
18456;DHT22;9357;49.900;8.208;2023-02-04T04:24:34;7.80;99.90
18456;DHT22;9357;49.900;8.208;2023-02-04T04:26:07;7.80;99.90
18456;DHT22;9357;49.900;8.208;2023-02-04T04:27:39;7.70;99.90
18456;DHT22;9357;49.900;8.208;2023-02-04T04:29:14;7.70;99.90
18456;DHT22;9357;49.900;8.208;2023-02-04T04:30:46;7.70;99.90
18456;DHT22;9357;49.900;8.208;2023-02-04T04:32:19;7.70;99.90
18456;DHT22;9357;49.900;8.208;2023-02-04T04:33:52;7.70;99.90
18456;DHT22;9357;49.900;8.208;2023-02-04T04:35:24;7.70;99.90
18456;DHT22;9357;49.900;8.208;2023-02-04T04:36:56;7.70;99.90
18456;DHT22;9357;49.900;8.208;2023-02-04T04:38:29;7.70;99.90
18456;DHT22;9357;49.900;8.208;2023-02-04T04:40:02;7.70;99.90
18456;DHT22;9357;49.900;8.208;2023-02-04T04:41:34;7.70;99.90
18456;DHT22;9357;49.900;8.208;2023-02-04T04:43:06;7.70;99.90
18456;DHT22;9357;49.900;8.208;2023-02-04T04:44:40;7.70;99.90
18456;DHT22;9357;49.900;8.208;2023-02-04T04:46:12;7.70;99.90
18456;DHT22;9357;49.900;8.208;2023-02-04T04:47:45;7.70;99.90
18456;DHT22;9357;49.900;8.208;2023-02-04T04:49:17;7.70;99.90
18456;DHT22;9357;49.900;8.208;2023-02-04T04:50:50;7.70;99.90
18456;DHT22;9357;49.900;8.208;2023-02-04T04:52:23;7.70;99.90
18456;DHT22;9357;49.900;8.208;2023-02-04T04:53:55;7.70;99.90
18456;DHT22;9357;49.900;8.208;2023-02-04T04:55:28;7.70;99.90
18456;DHT22;9357;49.900;8.208;2023-02-04T04:57:01;7.70;99.90
18456;DHT22;9357;49.900;8.208;2023-02-04T04:58:34;7.70;99.90
18456;DHT22;9357;49.900;8.208;2023-02-04T05:00:14;7.70;99.90
18456;DHT22;9357;49.900;8.208;2023-02-04T05:01:47;7.70;99.90
18456;DHT22;9357;49.900;8.208;2023-02-04T05:03:19;7.70;99.90
18456;DHT22;9357;49.900;8.208;2023-02-04T05:04:52;7.70;99.90
18456;DHT22;9357;49.900;8.208;2023-02-04T05:06:24;7.70;99.90
18456;DHT22;9357;49.900;8.208;2023-02-04T05:07:57;7.70;99.90
18456;DHT22;9357;49.900;8.208;2023-02-04T05:09:29;7.60;99.90
18456;DHT22;9357;49.900;8.208;2023-02-04T05:11:01;7.70;99.90
18456;DHT22;9357;49.900;8.208;2023-02-04T05:12:34;7.70;99.90
18456;DHT22;9357;49.900;8.208;2023-02-04T05:14:07;7.70;99.90
18456;DHT22;9357;49.900;8.208;2023-02-04T05:15:41;7.60;99.90
18456;DHT22;9357;49.900;8.208;2023-02-04T05:17:13;7.60;99.90
18456;DHT22;9357;49.900;8.208;2023-02-04T05:18:46;7.60;99.90
18456;DHT22;9357;49.900;8.208;2023-02-04T05:20:19;7.60;99.90
18456;DHT22;9357;49.900;8.208;2023-02-04T05:21:51;7.60;99.90
18456;DHT22;9357;49.900;8.208;2023-02-04T05:23:24;7.60;99.90
18456;DHT22;9357;49.900;8.208;2023-02-04T05:24:56;7.60;99.90
18456;DHT22;9357;49.900;8.208;2023-02-04T05:26:29;7.60;99.90
18456;DHT22;9357;49.900;8.208;2023-02-04T05:28:02;7.50;99.90
18456;DHT22;9357;49.900;8.208;2023-02-04T05:29:34;7.50;99.90
18456;DHT22;9357;49.900;8.208;2023-02-04T05:31:08;7.50;99.90
18456;DHT22;9357;49.900;8.208;2023-02-04T05:32:40;7.50;99.90
18456;DHT22;9357;49.900;8.208;2023-02-04T05:34:13;7.50;99.90
18456;DHT22;9357;49.900;8.208;2023-02-04T05:35:46;7.50;99.90
18456;DHT22;9357;49.900;8.208;2023-02-04T05:37:20;7.50;99.90
18456;DHT22;9357;49.900;8.208;2023-02-04T05:38:52;7.50;99.90
18456;DHT22;9357;49.900;8.208;2023-02-04T05:40:25;7.40;99.90
18456;DHT22;9357;49.900;8.208;2023-02-04T05:41:57;7.40;99.90
18456;DHT22;9357;49.900;8.208;2023-02-04T05:43:30;7.40;99.90
18456;DHT22;9357;49.900;8.208;2023-02-04T05:45:02;7.50;99.90
18456;DHT22;9357;49.900;8.208;2023-02-04T05:46:36;7.50;99.90
18456;DHT22;9357;49.900;8.208;2023-02-04T05:48:09;7.40;99.90
18456;DHT22;9357;49.900;8.208;2023-02-04T05:49:42;7.40;99.90
18456;DHT22;9357;49.900;8.208;2023-02-04T05:51:15;7.40;99.90
18456;DHT22;9357;49.900;8.208;2023-02-04T05:52:47;7.40;99.90
18456;DHT22;9357;49.900;8.208;2023-02-04T05:54:20;7.40;99.90
18456;DHT22;9357;49.900;8.208;2023-02-04T05:55:53;7.40;99.90
18456;DHT22;9357;49.900;8.208;2023-02-04T05:57:26;7.50;99.90
18456;DHT22;9357;49.900;8.208;2023-02-04T05:58:57;7.50;99.90
18456;DHT22;9357;49.900;8.208;2023-02-04T06:00:30;7.50;99.90
18456;DHT22;9357;49.900;8.208;2023-02-04T06:02:05;7.50;99.90
18456;DHT22;9357;49.900;8.208;2023-02-04T06:03:37;7.50;99.90
18456;DHT22;9357;49.900;8.208;2023-02-04T06:05:10;7.50;99.90
18456;DHT22;9357;49.900;8.208;2023-02-04T06:06:43;7.50;99.90
18456;DHT22;9357;49.900;8.208;2023-02-04T06:08:16;7.50;99.90
18456;DHT22;9357;49.900;8.208;2023-02-04T06:09:48;7.40;99.90
18456;DHT22;9357;49.900;8.208;2023-02-04T06:11:21;7.50;99.90
18456;DHT22;9357;49.900;8.208;2023-02-04T06:12:54;7.40;99.90
18456;DHT22;9357;49.900;8.208;2023-02-04T06:14:26;7.40;99.90
18456;DHT22;9357;49.900;8.208;2023-02-04T06:15:59;7.40;99.90
18456;DHT22;9357;49.900;8.208;2023-02-04T06:17:32;7.40;99.90
18456;DHT22;9357;49.900;8.208;2023-02-04T06:19:05;7.40;99.90
18456;DHT22;9357;49.900;8.208;2023-02-04T06:20:37;7.50;99.90
18456;DHT22;9357;49.900;8.208;2023-02-04T06:22:10;7.40;99.90
18456;DHT22;9357;49.900;8.208;2023-02-04T06:23:43;7.40;99.90
18456;DHT22;9357;49.900;8.208;2023-02-04T06:25:15;7.40;99.90
18456;DHT22;9357;49.900;8.208;2023-02-04T06:26:47;7.40;99.90
18456;DHT22;9357;49.900;8.208;2023-02-04T06:28:20;7.40;99.90
18456;DHT22;9357;49.900;8.208;2023-02-04T06:29:53;7.40;99.90
18456;DHT22;9357;49.900;8.208;2023-02-04T06:31:27;7.40;99.90
18456;DHT22;9357;49.900;8.208;2023-02-04T06:33:02;7.40;99.90
18456;DHT22;9357;49.900;8.208;2023-02-04T06:34:34;7.40;99.90
18456;DHT22;9357;49.900;8.208;2023-02-04T06:36:07;7.30;99.90
18456;DHT22;9357;49.900;8.208;2023-02-04T06:37:40;7.30;99.90
18456;DHT22;9357;49.900;8.208;2023-02-04T06:39:13;7.30;99.90
18456;DHT22;9357;49.900;8.208;2023-02-04T06:40:46;7.30;99.90
18456;DHT22;9357;49.900;8.208;2023-02-04T06:42:20;7.30;99.90
18456;DHT22;9357;49.900;8.208;2023-02-04T06:43:52;7.30;99.90
18456;DHT22;9357;49.900;8.208;2023-02-04T06:45:25;7.30;99.90
18456;DHT22;9357;49.900;8.208;2023-02-04T06:46:58;7.30;99.90
18456;DHT22;9357;49.900;8.208;2023-02-04T06:48:32;7.30;99.90
18456;DHT22;9357;49.900;8.208;2023-02-04T06:50:05;7.30;99.90
18456;DHT22;9357;49.900;8.208;2023-02-04T06:51:38;7.30;99.90
18456;DHT22;9357;49.900;8.208;2023-02-04T06:53:10;7.30;99.90
18456;DHT22;9357;49.900;8.208;2023-02-04T06:54:43;7.30;99.90
18456;DHT22;9357;49.900;8.208;2023-02-04T06:56:16;7.30;99.90
18456;DHT22;9357;49.900;8.208;2023-02-04T06:57:48;7.30;99.90
18456;DHT22;9357;49.900;8.208;2023-02-04T06:59:21;7.20;99.90
18456;DHT22;9357;49.900;8.208;2023-02-04T07:00:55;7.20;99.90
18456;DHT22;9357;49.900;8.208;2023-02-04T07:02:28;7.20;99.90
18456;DHT22;9357;49.900;8.208;2023-02-04T07:04:02;7.20;99.90
18456;DHT22;9357;49.900;8.208;2023-02-04T07:05:35;7.30;99.90
18456;DHT22;9357;49.900;8.208;2023-02-04T07:07:08;7.20;99.90
18456;DHT22;9357;49.900;8.208;2023-02-04T07:08:40;7.30;99.90
18456;DHT22;9357;49.900;8.208;2023-02-04T07:10:13;7.30;99.90
18456;DHT22;9357;49.900;8.208;2023-02-04T07:11:47;7.30;99.90
18456;DHT22;9357;49.900;8.208;2023-02-04T07:13:20;7.30;99.90
18456;DHT22;9357;49.900;8.208;2023-02-04T07:14:52;7.30;99.90
18456;DHT22;9357;49.900;8.208;2023-02-04T07:16:25;7.30;99.90
18456;DHT22;9357;49.900;8.208;2023-02-04T07:17:58;7.30;99.90
18456;DHT22;9357;49.900;8.208;2023-02-04T07:19:32;7.30;99.90
18456;DHT22;9357;49.900;8.208;2023-02-04T07:21:05;7.20;99.90
18456;DHT22;9357;49.900;8.208;2023-02-04T07:22:38;7.20;99.90
18456;DHT22;9357;49.900;8.208;2023-02-04T07:24:11;7.30;99.90
18456;DHT22;9357;49.900;8.208;2023-02-04T07:25:44;7.20;99.90
18456;DHT22;9357;49.900;8.208;2023-02-04T07:27:17;7.20;99.90
18456;DHT22;9357;49.900;8.208;2023-02-04T07:28:49;7.20;99.90
18456;DHT22;9357;49.900;8.208;2023-02-04T07:30:21;7.20;99.90
18456;DHT22;9357;49.900;8.208;2023-02-04T07:31:54;7.20;99.90
18456;DHT22;9357;49.900;8.208;2023-02-04T07:33:27;7.20;99.90
18456;DHT22;9357;49.900;8.208;2023-02-04T07:35:01;7.20;99.90
18456;DHT22;9357;49.900;8.208;2023-02-04T07:36:34;7.20;99.90
18456;DHT22;9357;49.900;8.208;2023-02-04T07:38:06;7.20;99.90
18456;DHT22;9357;49.900;8.208;2023-02-04T07:39:39;7.20;99.90
18456;DHT22;9357;49.900;8.208;2023-02-04T07:41:12;7.30;99.90
18456;DHT22;9357;49.900;8.208;2023-02-04T07:42:45;7.20;99.90
18456;DHT22;9357;49.900;8.208;2023-02-04T07:44:18;7.30;99.90
18456;DHT22;9357;49.900;8.208;2023-02-04T07:45:50;7.30;99.90
18456;DHT22;9357;49.900;8.208;2023-02-04T07:47:23;7.20;99.90
18456;DHT22;9357;49.900;8.208;2023-02-04T07:48:56;7.30;99.90
18456;DHT22;9357;49.900;8.208;2023-02-04T07:50:30;7.30;99.90
18456;DHT22;9357;49.900;8.208;2023-02-04T07:52:03;7.20;99.90
18456;DHT22;9357;49.900;8.208;2023-02-04T07:53:36;7.30;99.90
18456;DHT22;9357;49.900;8.208;2023-02-04T07:55:09;7.20;99.90
18456;DHT22;9357;49.900;8.208;2023-02-04T07:56:42;7.30;99.90
18456;DHT22;9357;49.900;8.208;2023-02-04T07:58:14;7.30;99.90
18456;DHT22;9357;49.900;8.208;2023-02-04T07:59:47;7.30;99.90
18456;DHT22;9357;49.900;8.208;2023-02-04T08:01:20;7.30;99.90
18456;DHT22;9357;49.900;8.208;2023-02-04T08:02:52;7.30;99.90
18456;DHT22;9357;49.900;8.208;2023-02-04T08:04:25;7.30;99.90
18456;DHT22;9357;49.900;8.208;2023-02-04T08:05:59;7.30;99.90
18456;DHT22;9357;49.900;8.208;2023-02-04T08:07:32;7.30;99.90
18456;DHT22;9357;49.900;8.208;2023-02-04T08:09:05;7.30;99.90
18456;DHT22;9357;49.900;8.208;2023-02-04T08:10:38;7.30;99.90
18456;DHT22;9357;49.900;8.208;2023-02-04T08:12:11;7.30;99.90
18456;DHT22;9357;49.900;8.208;2023-02-04T08:13:43;7.30;99.90
18456;DHT22;9357;49.900;8.208;2023-02-04T08:15:16;7.30;99.90
18456;DHT22;9357;49.900;8.208;2023-02-04T08:16:49;7.30;99.90
18456;DHT22;9357;49.900;8.208;2023-02-04T08:18:21;7.40;99.90
18456;DHT22;9357;49.900;8.208;2023-02-04T08:19:55;7.30;99.90
18456;DHT22;9357;49.900;8.208;2023-02-04T08:21:29;7.30;99.90
18456;DHT22;9357;49.900;8.208;2023-02-04T08:23:02;7.30;99.90
18456;DHT22;9357;49.900;8.208;2023-02-04T08:24:34;7.30;99.90
18456;DHT22;9357;49.900;8.208;2023-02-04T08:26:08;7.30;99.90
18456;DHT22;9357;49.900;8.208;2023-02-04T08:27:41;7.30;99.90
18456;DHT22;9357;49.900;8.208;2023-02-04T08:29:14;7.30;99.90
18456;DHT22;9357;49.900;8.208;2023-02-04T08:30:47;7.30;99.90
18456;DHT22;9357;49.900;8.208;2023-02-04T08:32:20;7.40;99.90
18456;DHT22;9357;49.900;8.208;2023-02-04T08:33:52;7.40;99.90
18456;DHT22;9357;49.900;8.208;2023-02-04T08:35:25;7.40;99.90
18456;DHT22;9357;49.900;8.208;2023-02-04T08:36:59;7.40;99.90
18456;DHT22;9357;49.900;8.208;2023-02-04T08:38:32;7.40;99.90
18456;DHT22;9357;49.900;8.208;2023-02-04T08:40:05;7.40;99.90
18456;DHT22;9357;49.900;8.208;2023-02-04T08:41:38;7.40;99.90
18456;DHT22;9357;49.900;8.208;2023-02-04T08:43:11;7.40;99.90
18456;DHT22;9357;49.900;8.208;2023-02-04T08:44:44;7.50;99.90
18456;DHT22;9357;49.900;8.208;2023-02-04T08:46:16;7.50;99.90
18456;DHT22;9357;49.900;8.208;2023-02-04T08:47:49;7.50;99.90
18456;DHT22;9357;49.900;8.208;2023-02-04T08:49:22;7.50;99.90
18456;DHT22;9357;49.900;8.208;2023-02-04T08:50:55;7.60;99.90
18456;DHT22;9357;49.900;8.208;2023-02-04T08:52:29;7.70;99.90
18456;DHT22;9357;49.900;8.208;2023-02-04T08:54:01;7.70;99.90
18456;DHT22;9357;49.900;8.208;2023-02-04T08:55:34;7.90;99.90
18456;DHT22;9357;49.900;8.208;2023-02-04T08:57:07;8.00;99.90
18456;DHT22;9357;49.900;8.208;2023-02-04T08:58:40;8.10;99.90
18456;DHT22;9357;49.900;8.208;2023-02-04T09:00:13;8.10;99.90
18456;DHT22;9357;49.900;8.208;2023-02-04T09:01:46;8.20;99.90
18456;DHT22;9357;49.900;8.208;2023-02-04T09:03:21;8.20;99.90
18456;DHT22;9357;49.900;8.208;2023-02-04T09:04:54;8.30;99.90
18456;DHT22;9357;49.900;8.208;2023-02-04T09:06:27;8.40;99.90
18456;DHT22;9357;49.900;8.208;2023-02-04T09:08:01;8.40;99.90
18456;DHT22;9357;49.900;8.208;2023-02-04T09:09:34;8.50;99.90
18456;DHT22;9357;49.900;8.208;2023-02-04T09:11:06;8.60;99.90
18456;DHT22;9357;49.900;8.208;2023-02-04T09:12:41;8.70;99.90
18456;DHT22;9357;49.900;8.208;2023-02-04T09:14:14;8.80;99.90
18456;DHT22;9357;49.900;8.208;2023-02-04T09:15:47;8.90;99.90
18456;DHT22;9357;49.900;8.208;2023-02-04T09:17:20;9.00;99.90
18456;DHT22;9357;49.900;8.208;2023-02-04T09:18:53;9.00;99.90
18456;DHT22;9357;49.900;8.208;2023-02-04T09:20:25;9.00;99.90
18456;DHT22;9357;49.900;8.208;2023-02-04T09:22:00;9.00;99.90
18456;DHT22;9357;49.900;8.208;2023-02-04T09:23:34;9.00;99.90
18456;DHT22;9357;49.900;8.208;2023-02-04T09:25:07;9.00;99.90
18456;DHT22;9357;49.900;8.208;2023-02-04T09:26:40;9.10;99.90
18456;DHT22;9357;49.900;8.208;2023-02-04T09:28:13;9.10;99.90
18456;DHT22;9357;49.900;8.208;2023-02-04T09:29:47;9.10;99.90
18456;DHT22;9357;49.900;8.208;2023-02-04T09:31:20;9.20;99.90
18456;DHT22;9357;49.900;8.208;2023-02-04T09:32:53;9.20;99.90
18456;DHT22;9357;49.900;8.208;2023-02-04T09:34:26;9.20;99.90
18456;DHT22;9357;49.900;8.208;2023-02-04T09:35:58;9.30;99.90
18456;DHT22;9357;49.900;8.208;2023-02-04T09:37:31;9.30;99.90
18456;DHT22;9357;49.900;8.208;2023-02-04T09:39:06;9.40;99.90
18456;DHT22;9357;49.900;8.208;2023-02-04T09:40:42;9.40;99.90
18456;DHT22;9357;49.900;8.208;2023-02-04T09:42:16;9.50;99.90
18456;DHT22;9357;49.900;8.208;2023-02-04T09:43:48;9.50;99.90
18456;DHT22;9357;49.900;8.208;2023-02-04T09:45:23;9.50;99.90
18456;DHT22;9357;49.900;8.208;2023-02-04T09:46:59;9.50;99.90
18456;DHT22;9357;49.900;8.208;2023-02-04T09:48:32;9.50;99.90
18456;DHT22;9357;49.900;8.208;2023-02-04T09:50:08;9.60;99.90
18456;DHT22;9357;49.900;8.208;2023-02-04T09:51:45;9.60;99.90
18456;DHT22;9357;49.900;8.208;2023-02-04T09:53:20;9.60;99.90
18456;DHT22;9357;49.900;8.208;2023-02-04T09:54:55;9.70;99.90
18456;DHT22;9357;49.900;8.208;2023-02-04T09:56:29;9.70;99.90
18456;DHT22;9357;49.900;8.208;2023-02-04T09:58:07;9.60;99.90
18456;DHT22;9357;49.900;8.208;2023-02-04T09:59:43;9.60;99.90
18456;DHT22;9357;49.900;8.208;2023-02-04T10:01:17;9.60;99.90
18456;DHT22;9357;49.900;8.208;2023-02-04T10:02:50;9.70;99.90
18456;DHT22;9357;49.900;8.208;2023-02-04T10:04:24;9.70;99.90
18456;DHT22;9357;49.900;8.208;2023-02-04T10:05:56;9.80;99.90
18456;DHT22;9357;49.900;8.208;2023-02-04T10:07:29;9.90;99.90
18456;DHT22;9357;49.900;8.208;2023-02-04T10:09:03;9.90;99.90